createdAt,value
2019-01-02T00:01:57.723Z,99.90
2019-01-02T00:04:38.283Z,99.90
2019-01-02T00:07:19.331Z,99.90
2019-01-02T00:09:59.987Z,99.90
2019-01-02T00:12:40.797Z,99.90
2019-01-02T00:15:22.592Z,99.90
2019-01-02T00:18:02.995Z,99.90
2019-01-02T00:20:43.899Z,99.90
2019-01-02T00:23:24.735Z,99.90
2019-01-02T00:26:05.299Z,99.90
2019-01-02T00:28:45.879Z,99.90
2019-01-02T00:31:26.823Z,99.90
2019-01-02T00:33:55.204Z,99.90
2019-01-02T00:36:43.298Z,99.90
2019-01-02T00:39:33.001Z,99.90
2019-01-02T00:42:20.732Z,99.90
2019-01-02T00:45:08.819Z,99.90
2019-01-02T00:47:58.269Z,99.90
2019-01-02T00:50:45.999Z,99.90
2019-01-02T00:53:14.726Z,99.90
2019-01-02T00:55:55.207Z,99.90
2019-01-02T00:58:35.887Z,99.90
2019-01-02T01:01:16.603Z,99.90
2019-01-02T01:03:57.375Z,99.90
2019-01-02T01:06:37.984Z,99.90
2019-01-02T01:09:18.947Z,99.90
2019-01-02T01:11:59.733Z,99.90
2019-01-02T01:17:24.251Z,99.90
2019-01-02T01:20:05.024Z,99.90
2019-01-02T01:22:45.828Z,99.90
2019-01-02T01:25:26.937Z,99.90
2019-01-02T01:28:07.371Z,99.90
2019-01-02T01:30:48.123Z,99.90
2019-01-02T01:33:28.840Z,99.90
2019-01-02T01:36:09.723Z,99.90
2019-01-02T01:38:53.665Z,99.90
2019-01-02T01:41:34.647Z,99.90
2019-01-02T01:44:15.227Z,99.90
2019-01-02T01:46:56.079Z,99.90
2019-01-02T01:49:36.827Z,99.90
2019-01-02T01:52:17.703Z,99.90
2019-01-02T01:54:58.179Z,99.90
2019-01-02T01:57:39.104Z,99.90
2019-01-02T02:00:19.574Z,99.90
2019-01-02T02:03:00.015Z,99.90
2019-01-02T02:05:40.970Z,99.90
2019-01-02T02:08:21.827Z,99.90
2019-01-02T02:11:02.632Z,99.90
2019-01-02T02:13:43.353Z,99.90
2019-01-02T02:19:06.779Z,99.90
2019-01-02T02:21:47.151Z,99.90
2019-01-02T02:24:28.045Z,99.90
2019-01-02T02:27:09.420Z,99.90
2019-01-02T02:29:37.812Z,99.90
2019-01-02T02:32:25.519Z,99.90
2019-01-02T02:35:13.253Z,99.90
2019-01-02T02:38:01.255Z,99.90
2019-01-02T02:40:49.311Z,99.90
2019-01-02T02:43:37.030Z,99.90
2019-01-02T02:46:24.971Z,99.90
2019-01-02T02:49:12.723Z,99.90
2019-01-02T02:52:00.446Z,99.90
2019-01-02T02:54:41.407Z,99.90
2019-01-02T02:57:21.811Z,99.90
2019-01-02T03:00:02.297Z,99.90
2019-01-02T03:02:43.310Z,99.90
2019-01-02T03:05:23.887Z,99.90
2019-01-02T03:08:04.581Z,99.90
2019-01-02T03:10:45.590Z,99.90
2019-01-02T03:13:26.384Z,99.90
2019-01-02T03:16:07.259Z,99.90
2019-01-02T03:18:48.075Z,99.90
2019-01-02T03:21:28.935Z,99.90
2019-01-02T03:24:09.667Z,99.90
2019-01-02T03:26:50.491Z,99.90
2019-01-02T03:29:31.353Z,99.90
2019-01-02T03:32:11.974Z,99.90
2019-01-02T03:34:52.768Z,99.90
2019-01-02T03:37:33.279Z,99.90
2019-01-02T03:40:14.180Z,99.90
2019-01-02T03:42:54.772Z,99.90
2019-01-02T03:45:35.535Z,99.90
2019-01-02T03:48:16.051Z,99.90
2019-01-02T03:50:56.736Z,99.90
2019-01-02T03:56:19.551Z,99.90
2019-01-02T03:59:00.012Z,99.90
2019-01-02T04:01:28.637Z,99.90
2019-01-02T04:04:16.351Z,99.90
2019-01-02T04:07:04.396Z,99.90
2019-01-02T04:09:52.447Z,99.90
2019-01-02T04:12:40.400Z,99.90
2019-01-02T04:15:28.119Z,99.90
2019-01-02T04:18:16.407Z,99.90
2019-01-02T04:21:04.463Z,99.90
2019-01-02T04:23:52.180Z,99.90
2019-01-02T04:26:39.899Z,99.90
2019-01-02T04:29:27.615Z,99.90
2019-01-02T04:31:56.403Z,99.90
2019-01-02T04:34:44.111Z,99.90
2019-01-02T04:37:31.831Z,99.90
2019-01-02T04:40:19.853Z,99.90
2019-01-02T04:43:07.804Z,99.90
2019-01-02T04:45:55.530Z,99.90
2019-01-02T04:48:43.240Z,99.90
2019-01-02T04:51:31.266Z,99.90
2019-01-02T04:54:18.975Z,99.90
2019-01-02T04:56:59.972Z,99.90
2019-01-02T04:59:40.892Z,99.90
2019-01-02T05:02:21.419Z,99.90
2019-01-02T05:05:01.894Z,99.90
2019-01-02T05:07:42.551Z,99.90
2019-01-02T05:10:23.191Z,99.90
2019-01-02T05:13:03.624Z,99.90
2019-01-02T05:15:44.059Z,99.90
2019-01-02T05:18:24.324Z,99.90
2019-01-02T05:21:04.811Z,99.90
2019-01-02T05:23:45.327Z,99.90
2019-01-02T05:26:25.916Z,99.90
2019-01-02T05:29:06.380Z,99.90
2019-01-02T05:31:47.310Z,99.90
2019-01-02T05:34:28.254Z,99.90
2019-01-02T05:37:08.791Z,99.90
2019-01-02T05:42:32.699Z,99.90
2019-01-02T05:45:13.235Z,99.90
2019-01-02T05:47:57.308Z,99.90
2019-01-02T05:50:37.743Z,99.90
2019-01-02T05:53:18.387Z,99.90
2019-01-02T05:55:47.095Z,99.90
2019-01-02T05:58:35.138Z,99.90
2019-01-02T06:01:23.099Z,99.90
2019-01-02T06:04:10.803Z,99.90
2019-01-02T06:06:58.795Z,99.90
2019-01-02T06:09:46.747Z,99.90
2019-01-02T06:12:34.805Z,99.90
2019-01-02T06:15:22.515Z,99.90
2019-01-02T06:18:10.231Z,99.90
2019-01-02T06:20:57.944Z,99.90
2019-01-02T06:23:45.663Z,99.90
2019-01-02T06:26:33.448Z,99.90
2019-01-02T06:29:21.202Z,99.90
2019-01-02T06:32:09.244Z,99.90
2019-01-02T06:34:57.183Z,99.90
2019-01-02T06:37:45.146Z,99.90
2019-01-02T06:40:32.855Z,99.90
2019-01-02T06:43:20.575Z,99.90
2019-01-02T06:46:08.591Z,99.90
2019-01-02T06:48:56.311Z,99.90
2019-01-02T06:51:44.025Z,99.90
2019-01-02T06:54:31.775Z,99.90
2019-01-02T06:57:13.955Z,99.90
2019-01-02T06:59:55.047Z,99.90
2019-01-02T07:02:35.523Z,99.90
2019-01-02T07:05:16.316Z,99.90
2019-01-02T07:07:57.364Z,99.90
2019-01-02T07:10:38.202Z,99.90
2019-01-02T07:13:18.795Z,99.90
2019-01-02T07:15:59.363Z,99.90
2019-01-02T07:18:39.879Z,99.90
2019-01-02T07:21:20.723Z,99.90
2019-01-02T07:24:01.227Z,99.90
2019-01-02T07:26:42.331Z,99.90
2019-01-02T07:29:23.695Z,99.90
2019-01-02T07:32:04.196Z,99.90
2019-01-02T07:34:45.295Z,99.90
2019-01-02T07:37:26.949Z,99.90
2019-01-02T07:40:07.907Z,99.90
2019-01-02T07:42:48.467Z,99.90
2019-01-02T07:45:28.919Z,99.90
2019-01-02T07:48:09.445Z,99.90
2019-01-02T07:50:49.847Z,99.90
2019-01-02T07:53:30.736Z,99.90
2019-01-02T07:58:54.635Z,99.90
2019-01-02T08:01:35.379Z,99.90
2019-01-02T08:04:16.215Z,99.90
2019-01-02T08:06:56.571Z,99.90
2019-01-02T08:09:37.011Z,99.90
2019-01-02T08:12:17.311Z,99.90
2019-01-02T08:15:03.067Z,99.90
2019-01-02T08:17:39.971Z,99.90
2019-01-02T08:20:24.107Z,99.90
2019-01-02T08:23:04.863Z,99.90
2019-01-02T08:25:45.484Z,99.90
2019-01-02T08:28:25.763Z,99.90
2019-01-02T08:31:06.635Z,99.90
2019-01-02T08:33:47.404Z,99.90
2019-01-02T08:36:28.068Z,99.90
2019-01-02T08:39:08.848Z,99.90
2019-01-02T08:41:49.832Z,99.90
2019-01-02T08:44:30.327Z,99.90
2019-01-02T08:47:10.599Z,99.90
2019-01-02T08:49:51.252Z,99.90
2019-01-02T08:52:31.787Z,99.90
2019-01-02T08:55:12.511Z,99.90
2019-01-02T08:57:53.150Z,99.90
2019-01-02T09:00:34.023Z,99.90
2019-01-02T09:03:14.756Z,99.90
2019-01-02T09:05:55.484Z,99.90
2019-01-02T09:08:36.219Z,99.90
2019-01-02T09:11:17.068Z,99.90
2019-01-02T09:13:57.552Z,99.90
2019-01-02T09:16:38.005Z,99.90
2019-01-02T09:19:18.508Z,99.90
2019-01-02T09:22:00.848Z,99.90
2019-01-02T09:24:41.961Z,99.90
2019-01-02T09:27:22.600Z,99.90
2019-01-02T09:30:03.164Z,99.90
2019-01-02T09:32:43.895Z,99.90
2019-01-02T09:35:24.355Z,99.90
2019-01-02T09:38:05.135Z,99.90
2019-01-02T09:40:45.933Z,99.90
2019-01-02T09:43:26.767Z,99.90
2019-01-02T09:46:07.607Z,99.90
2019-01-02T09:48:48.152Z,99.90
2019-01-02T09:51:28.948Z,98.90
2019-01-02T09:54:09.728Z,95.90
2019-01-02T09:56:50.323Z,93.80
2019-01-02T10:02:15.199Z,93.50
2019-01-02T10:07:40.104Z,89.00
2019-01-02T10:10:20.556Z,89.90
2019-01-02T10:13:01.374Z,91.50
2019-01-02T10:15:42.380Z,93.30
2019-01-02T10:18:23.119Z,95.80
2019-01-02T10:21:03.984Z,97.90
2019-01-02T10:23:44.884Z,99.90
2019-01-02T10:26:25.727Z,99.90
2019-01-02T10:29:06.023Z,99.90
2019-01-02T10:32:14.458Z,99.90
2019-01-02T10:35:21.501Z,99.90
2019-01-02T10:38:28.791Z,99.90
2019-01-02T10:41:37.464Z,99.90
2019-01-02T10:44:44.515Z,99.90
2019-01-02T10:47:53.220Z,99.90
2019-01-02T10:51:00.504Z,99.90
2019-01-02T10:54:07.773Z,99.90
2019-01-02T10:56:47.975Z,99.90
2019-01-02T10:59:28.520Z,99.90
2019-01-02T11:02:09.319Z,99.90
2019-01-02T11:04:49.923Z,99.90
2019-01-02T11:07:31.781Z,99.90
2019-01-02T11:10:13.155Z,99.90
2019-01-02T11:12:53.531Z,99.90
2019-01-02T11:15:34.307Z,99.90
2019-01-02T11:18:15.128Z,99.90
2019-01-02T11:20:55.744Z,99.90
2019-01-02T11:23:36.311Z,99.90
2019-01-02T11:26:16.959Z,99.90
2019-01-02T11:28:57.970Z,99.90
2019-01-02T11:31:38.948Z,99.60
2019-01-02T11:34:19.731Z,93.50
2019-01-02T11:37:00.868Z,93.00
2019-01-02T11:39:41.711Z,88.80
2019-01-02T11:42:22.259Z,82.90
2019-01-02T11:45:02.924Z,81.20
2019-01-02T11:47:43.417Z,78.40
2019-01-02T11:50:24.023Z,76.50
2019-01-02T11:53:04.869Z,73.30
2019-01-02T11:55:45.477Z,71.60
2019-01-02T11:58:26.363Z,76.30
2019-01-02T12:01:07.239Z,77.60
2019-01-02T12:03:47.784Z,76.30
2019-01-02T12:06:28.424Z,74.50
2019-01-02T12:09:09.181Z,72.90
2019-01-02T12:11:49.655Z,71.70
2019-01-02T12:14:30.507Z,69.30
2019-01-02T12:17:11.195Z,67.20
2019-01-02T12:19:51.939Z,64.50
2019-01-02T12:22:32.587Z,64.80
2019-01-02T12:25:13.151Z,60.80
2019-01-02T12:27:53.488Z,60.40
2019-01-02T12:30:34.154Z,55.70
2019-01-02T12:33:15.135Z,54.40
2019-01-02T12:35:56.179Z,53.70
2019-01-02T12:38:37.004Z,48.80
2019-01-02T12:41:17.452Z,47.20
2019-01-02T12:43:57.915Z,48.60
2019-01-02T12:46:38.735Z,46.50
2019-01-02T12:49:19.515Z,44.80
2019-01-02T12:51:59.935Z,43.20
2019-01-02T12:54:40.576Z,44.60
2019-01-02T12:57:21.187Z,44.20
2019-01-02T13:00:01.969Z,46.20
2019-01-02T13:02:42.681Z,48.40
2019-01-02T13:05:23.120Z,49.20
2019-01-02T13:08:03.939Z,50.80
2019-01-02T13:10:44.691Z,52.80
2019-01-02T13:13:25.423Z,52.30
2019-01-02T13:16:06.639Z,50.90
2019-01-02T13:18:47.424Z,51.00
2019-01-02T13:21:27.931Z,50.80
2019-01-02T13:24:08.683Z,52.40
2019-01-02T13:26:49.379Z,51.80
2019-01-02T13:29:29.951Z,52.00
2019-01-02T13:32:10.663Z,52.70
2019-01-02T13:34:51.231Z,51.00
2019-01-02T13:37:31.987Z,49.70
2019-01-02T13:40:12.703Z,48.10
2019-01-02T13:42:53.687Z,47.60
2019-01-02T13:45:34.576Z,45.90
2019-01-02T13:48:15.603Z,44.10
2019-01-02T13:50:56.235Z,42.00
2019-01-02T13:53:37.228Z,44.20
2019-01-02T13:56:17.801Z,44.30
2019-01-02T13:58:58.968Z,45.40
2019-01-02T14:01:39.472Z,47.70
2019-01-02T14:04:20.662Z,46.60
2019-01-02T14:07:01.516Z,44.80
2019-01-02T14:09:41.659Z,44.00
2019-01-02T14:12:22.119Z,43.90
2019-01-02T14:15:02.868Z,45.20
2019-01-02T14:17:43.657Z,46.30
2019-01-02T14:20:24.219Z,47.80
2019-01-02T14:23:04.952Z,49.10
2019-01-02T14:25:45.802Z,51.20
2019-01-02T14:28:26.435Z,52.20
2019-01-02T14:31:07.048Z,53.70
2019-01-02T14:33:47.547Z,54.70
2019-01-02T14:36:28.507Z,56.80
2019-01-02T14:39:09.077Z,57.10
2019-01-02T14:41:50.407Z,58.10
2019-01-02T14:44:30.719Z,57.30
2019-01-02T14:47:11.951Z,58.20
2019-01-02T14:49:52.859Z,57.50
2019-01-02T14:52:33.387Z,58.20
2019-01-02T14:55:14.043Z,57.00
2019-01-02T14:57:54.827Z,59.00
2019-01-02T15:00:35.444Z,59.40
2019-01-02T15:03:16.259Z,60.10
2019-01-02T15:05:56.919Z,60.20
2019-01-02T15:08:37.545Z,61.70
2019-01-02T15:11:17.993Z,62.50
2019-01-02T15:13:58.548Z,64.10
2019-01-02T15:16:44.550Z,64.50
2019-01-02T15:19:22.187Z,65.00
2019-01-02T15:22:05.017Z,66.40
2019-01-02T15:24:49.446Z,65.90
2019-01-02T15:27:27.648Z,66.30
2019-01-02T15:30:08.439Z,67.60
2019-01-02T15:32:49.171Z,67.90
2019-01-02T15:35:29.957Z,68.40
2019-01-02T15:38:10.583Z,70.00
2019-01-02T15:40:51.291Z,69.10
2019-01-02T15:43:31.975Z,69.00
2019-01-02T15:46:12.571Z,68.80
2019-01-02T15:48:53.822Z,68.20
2019-01-02T15:51:34.587Z,70.00
2019-01-02T15:54:15.805Z,68.40
2019-01-02T15:56:56.150Z,69.30
2019-01-02T15:59:36.687Z,69.80
2019-01-02T16:02:17.880Z,70.50
2019-01-02T16:04:58.804Z,70.80
2019-01-02T16:07:39.455Z,72.10
2019-01-02T16:10:20.273Z,72.80
2019-01-02T16:13:00.595Z,73.00
2019-01-02T16:15:41.556Z,71.70
2019-01-02T16:18:22.535Z,72.30
2019-01-02T16:21:03.415Z,72.60
2019-01-02T16:23:44.295Z,73.10
2019-01-02T16:26:24.794Z,72.90
2019-01-02T16:29:05.411Z,73.70
2019-01-02T16:31:45.843Z,74.00
2019-01-02T16:34:26.318Z,74.70
2019-01-02T16:37:07.064Z,75.70
2019-01-02T16:39:48.252Z,75.90
2019-01-02T16:42:28.971Z,76.60
2019-01-02T16:45:09.579Z,79.30
2019-01-02T16:47:50.220Z,80.60
2019-01-02T16:50:30.781Z,82.30
2019-01-02T16:53:11.962Z,83.50
2019-01-02T16:55:52.394Z,84.60
2019-01-02T16:58:33.163Z,85.50
2019-01-02T17:01:13.696Z,88.00
2019-01-02T17:03:54.227Z,88.00
2019-01-02T17:06:35.155Z,89.10
2019-01-02T17:09:15.511Z,88.90
2019-01-02T17:11:56.223Z,89.30
2019-01-02T17:14:36.739Z,90.10
2019-01-02T17:17:17.631Z,90.50
2019-01-02T17:19:58.247Z,90.40
2019-01-02T17:22:38.631Z,90.90
2019-01-02T17:25:19.272Z,91.10
2019-01-02T17:28:00.491Z,91.00
2019-01-02T17:30:41.283Z,91.20
2019-01-02T17:33:22.111Z,91.50
2019-01-02T17:36:02.667Z,91.40
2019-01-02T17:38:43.707Z,91.50
2019-01-02T17:41:24.563Z,91.60
2019-01-02T17:44:05.583Z,92.20
2019-01-02T17:49:30.407Z,92.40
2019-01-02T17:52:11.418Z,92.70
2019-01-02T17:54:52.160Z,92.70
2019-01-02T17:57:32.822Z,92.70
2019-01-02T18:00:13.268Z,92.80
2019-01-02T18:02:54.171Z,93.40
2019-01-02T18:05:34.863Z,94.60
2019-01-02T18:08:15.684Z,94.70
2019-01-02T18:10:56.172Z,95.20
2019-01-02T18:13:36.766Z,95.40
2019-01-02T18:16:17.871Z,96.20
2019-01-02T18:18:58.239Z,96.50
2019-01-02T18:21:38.657Z,97.30
2019-01-02T18:24:19.459Z,97.60
2019-01-02T18:27:00.426Z,98.10
2019-01-02T18:29:41.342Z,98.50
2019-01-02T18:32:22.004Z,99.10
2019-01-02T18:35:03.156Z,99.30
2019-01-02T18:37:43.687Z,99.80
2019-01-02T18:40:24.287Z,99.90
2019-01-02T18:43:04.844Z,99.90
2019-01-02T18:45:45.440Z,99.90
2019-01-02T18:48:25.891Z,99.90
2019-01-02T18:51:06.407Z,99.90
2019-01-02T18:53:47.012Z,99.90
2019-01-02T18:56:28.193Z,99.90
2019-01-02T18:59:09.076Z,99.90
2019-01-02T19:01:49.855Z,99.90
2019-01-02T19:04:30.459Z,99.90
2019-01-02T19:07:11.031Z,99.90
2019-01-02T19:09:51.852Z,99.90
2019-01-02T19:12:32.367Z,99.90
2019-01-02T19:15:13.005Z,99.90
2019-01-02T19:17:53.692Z,99.90
2019-01-02T19:20:34.304Z,99.90
2019-01-02T19:23:15.175Z,99.90
2019-01-02T19:25:56.411Z,99.90
2019-01-02T19:28:36.846Z,99.90
2019-01-02T19:31:17.431Z,99.90
2019-01-02T19:33:57.903Z,99.90
2019-01-02T19:36:38.690Z,99.90
2019-01-02T19:39:20.291Z,99.90
2019-01-02T19:42:00.967Z,99.90
2019-01-02T19:44:41.807Z,99.90
2019-01-02T19:47:22.707Z,99.90
2019-01-02T19:50:03.356Z,99.90
2019-01-02T19:52:44.223Z,99.90
2019-01-02T19:55:25.058Z,99.90
2019-01-02T19:58:05.586Z,99.90
2019-01-02T20:00:46.652Z,99.90
2019-01-02T20:03:26.859Z,99.90
2019-01-02T20:06:07.552Z,99.90
2019-01-02T20:08:48.115Z,99.90
2019-01-02T20:11:28.607Z,99.90
2019-01-02T20:14:08.991Z,99.90
2019-01-02T20:16:49.432Z,99.90
2019-01-02T20:19:30.167Z,99.90
2019-01-02T20:22:10.515Z,99.90
2019-01-02T20:24:54.759Z,99.90
2019-01-02T20:27:35.333Z,99.90
2019-01-02T20:30:15.931Z,99.90
2019-01-02T20:32:56.743Z,99.90
2019-01-02T20:35:37.103Z,99.90
2019-01-02T20:38:17.651Z,99.90
2019-01-02T20:40:58.085Z,99.90
2019-01-02T20:43:38.507Z,99.90
2019-01-02T20:46:19.168Z,99.90
2019-01-02T20:48:59.635Z,99.90
2019-01-02T20:51:39.824Z,99.90
2019-01-02T20:54:20.278Z,99.90
2019-01-02T20:57:00.835Z,99.90
2019-01-02T20:59:41.087Z,99.90
2019-01-02T21:02:21.719Z,99.90
2019-01-02T21:05:02.396Z,99.90
2019-01-02T21:07:43.575Z,99.90
2019-01-02T21:10:24.243Z,99.90
2019-01-02T21:13:05.400Z,99.90
2019-01-02T21:15:45.708Z,99.90
2019-01-02T21:18:26.424Z,99.90
2019-01-02T21:21:06.987Z,99.90
2019-01-02T21:23:47.475Z,99.90
2019-01-02T21:26:27.935Z,99.90
2019-01-02T21:29:08.504Z,99.90
2019-01-02T21:31:49.312Z,99.90
2019-01-02T21:34:30.125Z,99.90
2019-01-02T21:37:10.631Z,99.90
2019-01-02T21:39:51.533Z,99.90
2019-01-02T21:42:32.528Z,99.90
2019-01-02T21:45:13.256Z,99.90
2019-01-02T21:47:53.891Z,99.90
2019-01-02T21:50:34.796Z,99.90
2019-01-02T21:53:15.467Z,99.90
2019-01-02T21:55:55.904Z,99.90
2019-01-02T21:58:36.587Z,99.90
2019-01-02T22:01:17.272Z,99.90
2019-01-02T22:03:57.859Z,99.90
2019-01-02T22:06:38.300Z,99.90
2019-01-02T22:09:18.811Z,99.90
2019-01-02T22:11:59.384Z,99.90
2019-01-02T22:14:40.328Z,99.90
2019-01-02T22:17:20.930Z,99.90
2019-01-02T22:20:01.761Z,99.90
2019-01-02T22:22:42.351Z,99.90
2019-01-02T22:25:23.036Z,99.90
2019-01-02T22:28:03.583Z,99.90
2019-01-02T22:30:44.163Z,99.90
2019-01-02T22:33:24.855Z,99.90
2019-01-02T22:36:05.481Z,99.90
2019-01-02T22:38:46.139Z,99.90
2019-01-02T22:41:27.664Z,99.90
2019-01-02T22:44:07.951Z,99.90
2019-01-02T22:46:48.579Z,99.90
2019-01-02T22:49:29.195Z,99.90
2019-01-02T22:52:09.687Z,99.90
2019-01-02T22:54:50.371Z,99.90
2019-01-02T22:57:31.016Z,99.90
2019-01-02T23:00:16.383Z,99.90
2019-01-02T23:02:59.065Z,99.90
2019-01-02T23:06:00.544Z,99.90
2019-01-02T23:09:00.380Z,99.90
2019-01-02T23:11:42.247Z,99.90
2019-01-02T23:20:43.688Z,99.90
2019-01-02T23:23:26.455Z,99.90
2019-01-02T23:26:27.016Z,99.90
2019-01-02T23:32:32.435Z,99.90
2019-01-02T23:35:15.339Z,99.90
2019-01-02T23:37:57.883Z,99.90
2019-01-02T23:40:40.487Z,99.90
2019-01-02T23:46:49.248Z,99.90
2019-01-02T23:49:34.238Z,99.90
2019-01-02T23:52:35.668Z,99.90
2019-01-02T23:58:20.843Z,99.90
